Terminal Aerodrome Forecast
Issued by NWS

Home | Current Version | Previous Version | Text Only | Print | Product List | Glossary On
Versions: 1 2 3 4 5 6 7 8 9 10 11 12
000
FTUS42 KMLB 302300
TAFLEE
TAF
KLEE 302322Z 3100/3124 VRB03KT P6SM VCTS FEW060CB SCT250
      TEMPO 3100/3101 -TSRA BKN035CB
     FM310100 VRB04KT P6SM FEW060 SCT100 SCT250
     FM310800 00000KT P6SM SCT250
     FM311400 13005KT P6SM SKC=

USA.gov is the U.S. government's official web portal to all federal, state and local government web resources and services.